sensor_id;sensor_type;location;lat;lon;timestamp;temperature;humidity
61201;DHT22;47065;52.898;6.992;2023-09-19T00:01:15;15.20;99.90
61201;DHT22;47065;52.898;6.992;2023-09-19T00:03:40;15.20;99.90
61201;DHT22;47065;52.898;6.992;2023-09-19T00:06:07;15.20;99.90
61201;DHT22;47065;52.898;6.992;2023-09-19T00:08:33;15.20;99.90
61201;DHT22;47065;52.898;6.992;2023-09-19T00:11:00;15.20;99.90
61201;DHT22;47065;52.898;6.992;2023-09-19T00:13:32;15.20;99.90
61201;DHT22;47065;52.898;6.992;2023-09-19T00:15:57;15.10;99.90
61201;DHT22;47065;52.898;6.992;2023-09-19T00:18:25;15.10;99.90
61201;DHT22;47065;52.898;6.992;2023-09-19T00:20:57;15.10;99.90
61201;DHT22;47065;52.898;6.992;2023-09-19T00:23:23;15.10;99.90
61201;DHT22;47065;52.898;6.992;2023-09-19T00:25:50;15.00;99.90
61201;DHT22;47065;52.898;6.992;2023-09-19T00:28:17;15.00;99.90
61201;DHT22;47065;52.898;6.992;2023-09-19T00:30:44;14.90;99.90
61201;DHT22;47065;52.898;6.992;2023-09-19T00:33:11;14.90;99.90
61201;DHT22;47065;52.898;6.992;2023-09-19T00:35:50;14.80;99.90
61201;DHT22;47065;52.898;6.992;2023-09-19T00:38:16;14.80;99.90
61201;DHT22;47065;52.898;6.992;2023-09-19T00:40:46;14.70;99.90
61201;DHT22;47065;52.898;6.992;2023-09-19T00:43:11;14.70;99.90
61201;DHT22;47065;52.898;6.992;2023-09-19T00:45:39;14.60;99.90
61201;DHT22;47065;52.898;6.992;2023-09-19T00:48:08;14.50;99.90
61201;DHT22;47065;52.898;6.992;2023-09-19T00:50:35;14.50;99.90
61201;DHT22;47065;52.898;6.992;2023-09-19T00:53:01;14.40;99.90
61201;DHT22;47065;52.898;6.992;2023-09-19T00:55:33;14.30;99.90
61201;DHT22;47065;52.898;6.992;2023-09-19T00:58:00;14.30;99.90
61201;DHT22;47065;52.898;6.992;2023-09-19T01:00:26;14.20;99.90
61201;DHT22;47065;52.898;6.992;2023-09-19T01:02:52;14.10;99.90
61201;DHT22;47065;52.898;6.992;2023-09-19T01:05:18;14.10;99.90
61201;DHT22;47065;52.898;6.992;2023-09-19T01:07:44;14.00;99.90
61201;DHT22;47065;52.898;6.992;2023-09-19T01:10:12;14.00;99.90
61201;DHT22;47065;52.898;6.992;2023-09-19T01:18:08;13.80;99.90
61201;DHT22;47065;52.898;6.992;2023-09-19T01:20:41;13.70;99.90
61201;DHT22;47065;52.898;6.992;2023-09-19T01:31:40;13.60;99.90
61201;DHT22;47065;52.898;6.992;2023-09-19T01:34:08;13.60;99.90
61201;DHT22;47065;52.898;6.992;2023-09-19T01:36:38;13.60;99.90
61201;DHT22;47065;52.898;6.992;2023-09-19T01:39:09;13.60;99.90
61201;DHT22;47065;52.898;6.992;2023-09-19T01:42:05;13.60;99.90
61201;DHT22;47065;52.898;6.992;2023-09-19T01:44:44;13.60;99.90
61201;DHT22;47065;52.898;6.992;2023-09-19T01:50:22;13.60;99.90
61201;DHT22;47065;52.898;6.992;2023-09-19T01:53:14;13.60;99.90
61201;DHT22;47065;52.898;6.992;2023-09-19T01:55:48;13.60;99.90
61201;DHT22;47065;52.898;6.992;2023-09-19T02:00:53;13.50;99.90
61201;DHT22;47065;52.898;6.992;2023-09-19T02:03:21;13.50;99.90
61201;DHT22;47065;52.898;6.992;2023-09-19T02:05:50;13.50;99.90
61201;DHT22;47065;52.898;6.992;2023-09-19T02:08:18;13.50;99.90
61201;DHT22;47065;52.898;6.992;2023-09-19T02:10:44;13.50;99.90
61201;DHT22;47065;52.898;6.992;2023-09-19T02:13:16;13.50;99.90
61201;DHT22;47065;52.898;6.992;2023-09-19T02:15:42;13.50;99.90
61201;DHT22;47065;52.898;6.992;2023-09-19T02:18:09;13.50;99.90
61201;DHT22;47065;52.898;6.992;2023-09-19T02:20:35;13.50;99.90
61201;DHT22;47065;52.898;6.992;2023-09-19T02:23:01;13.50;99.90
61201;DHT22;47065;52.898;6.992;2023-09-19T02:25:28;13.50;99.90
61201;DHT22;47065;52.898;6.992;2023-09-19T02:27:53;13.50;99.90
61201;DHT22;47065;52.898;6.992;2023-09-19T02:30:24;13.40;99.90
61201;DHT22;47065;52.898;6.992;2023-09-19T02:32:51;13.40;99.90
61201;DHT22;47065;52.898;6.992;2023-09-19T02:35:17;13.40;99.90
61201;DHT22;47065;52.898;6.992;2023-09-19T02:37:45;13.40;99.90
61201;DHT22;47065;52.898;6.992;2023-09-19T02:40:11;13.40;99.90
61201;DHT22;47065;52.898;6.992;2023-09-19T02:42:55;13.40;99.90
61201;DHT22;47065;52.898;6.992;2023-09-19T02:45:21;13.40;99.90
61201;DHT22;47065;52.898;6.992;2023-09-19T02:47:48;13.40;99.90
61201;DHT22;47065;52.898;6.992;2023-09-19T02:50:15;13.40;99.90
61201;DHT22;47065;52.898;6.992;2023-09-19T02:52:42;13.40;99.90
61201;DHT22;47065;52.898;6.992;2023-09-19T02:55:16;13.40;99.90
61201;DHT22;47065;52.898;6.992;2023-09-19T02:57:53;13.30;99.90
61201;DHT22;47065;52.898;6.992;2023-09-19T03:00:22;13.30;99.90
61201;DHT22;47065;52.898;6.992;2023-09-19T03:02:50;13.30;99.90
61201;DHT22;47065;52.898;6.992;2023-09-19T03:05:15;13.30;99.90
61201;DHT22;47065;52.898;6.992;2023-09-19T03:07:41;13.30;99.90
61201;DHT22;47065;52.898;6.992;2023-09-19T03:10:09;13.20;99.90
61201;DHT22;47065;52.898;6.992;2023-09-19T03:12:35;13.30;99.90
61201;DHT22;47065;52.898;6.992;2023-09-19T03:15:01;13.20;99.90
61201;DHT22;47065;52.898;6.992;2023-09-19T03:17:27;13.30;99.90
61201;DHT22;47065;52.898;6.992;2023-09-19T03:19:52;13.20;99.90
61201;DHT22;47065;52.898;6.992;2023-09-19T03:22:19;13.20;99.90
61201;DHT22;47065;52.898;6.992;2023-09-19T03:24:45;13.20;99.90
61201;DHT22;47065;52.898;6.992;2023-09-19T03:27:11;13.20;99.90
61201;DHT22;47065;52.898;6.992;2023-09-19T03:29:39;13.20;99.90
61201;DHT22;47065;52.898;6.992;2023-09-19T03:32:05;13.20;99.90
61201;DHT22;47065;52.898;6.992;2023-09-19T03:34:30;13.20;99.90
61201;DHT22;47065;52.898;6.992;2023-09-19T03:36:56;13.20;99.90
61201;DHT22;47065;52.898;6.992;2023-09-19T03:39:22;13.20;99.90
61201;DHT22;47065;52.898;6.992;2023-09-19T03:41:48;13.20;99.90
61201;DHT22;47065;52.898;6.992;2023-09-19T03:44:15;13.10;99.90
61201;DHT22;47065;52.898;6.992;2023-09-19T03:46:40;13.10;99.90
61201;DHT22;47065;52.898;6.992;2023-09-19T03:49:06;13.10;99.90
61201;DHT22;47065;52.898;6.992;2023-09-19T03:51:32;13.10;99.90
61201;DHT22;47065;52.898;6.992;2023-09-19T03:53:59;13.10;99.90
61201;DHT22;47065;52.898;6.992;2023-09-19T03:56:25;13.10;99.90
61201;DHT22;47065;52.898;6.992;2023-09-19T03:58:51;13.20;99.90
61201;DHT22;47065;52.898;6.992;2023-09-19T04:01:17;13.20;99.90
61201;DHT22;47065;52.898;6.992;2023-09-19T04:03:44;13.20;99.90
61201;DHT22;47065;52.898;6.992;2023-09-19T04:06:16;13.30;99.90
61201;DHT22;47065;52.898;6.992;2023-09-19T04:08:42;13.30;99.90
61201;DHT22;47065;52.898;6.992;2023-09-19T04:11:08;13.30;99.90
61201;DHT22;47065;52.898;6.992;2023-09-19T04:13:34;13.30;99.90
61201;DHT22;47065;52.898;6.992;2023-09-19T04:16:00;13.40;99.90
61201;DHT22;47065;52.898;6.992;2023-09-19T04:18:26;13.40;99.90
61201;DHT22;47065;52.898;6.992;2023-09-19T04:20:52;13.40;99.90
61201;DHT22;47065;52.898;6.992;2023-09-19T04:23:18;13.40;99.90
61201;DHT22;47065;52.898;6.992;2023-09-19T04:25:47;13.40;99.90
61201;DHT22;47065;52.898;6.992;2023-09-19T04:28:14;13.40;99.90
61201;DHT22;47065;52.898;6.992;2023-09-19T04:30:41;13.40;99.90
61201;DHT22;47065;52.898;6.992;2023-09-19T04:33:07;13.50;99.90
61201;DHT22;47065;52.898;6.992;2023-09-19T04:35:32;13.40;99.90
61201;DHT22;47065;52.898;6.992;2023-09-19T04:37:58;13.50;99.90
61201;DHT22;47065;52.898;6.992;2023-09-19T04:40:24;13.50;99.90
61201;DHT22;47065;52.898;6.992;2023-09-19T04:42:58;13.50;99.90
61201;DHT22;47065;52.898;6.992;2023-09-19T04:45:27;13.60;99.90
61201;DHT22;47065;52.898;6.992;2023-09-19T04:47:53;13.50;99.90
61201;DHT22;47065;52.898;6.992;2023-09-19T04:50:20;13.50;99.90
61201;DHT22;47065;52.898;6.992;2023-09-19T04:52:50;13.50;99.90
61201;DHT22;47065;52.898;6.992;2023-09-19T04:55:17;13.60;99.90
61201;DHT22;47065;52.898;6.992;2023-09-19T04:57:48;13.60;99.90
61201;DHT22;47065;52.898;6.992;2023-09-19T05:00:15;13.60;99.90
61201;DHT22;47065;52.898;6.992;2023-09-19T05:02:43;13.60;99.90
61201;DHT22;47065;52.898;6.992;2023-09-19T05:05:09;13.70;99.90
61201;DHT22;47065;52.898;6.992;2023-09-19T05:07:44;13.70;99.90
61201;DHT22;47065;52.898;6.992;2023-09-19T05:10:10;13.70;99.90
61201;DHT22;47065;52.898;6.992;2023-09-19T05:12:38;13.70;99.90
61201;DHT22;47065;52.898;6.992;2023-09-19T05:15:04;13.80;99.90
61201;DHT22;47065;52.898;6.992;2023-09-19T05:17:32;13.80;99.90
61201;DHT22;47065;52.898;6.992;2023-09-19T05:19:58;13.80;99.90
61201;DHT22;47065;52.898;6.992;2023-09-19T05:22:26;13.80;99.90
61201;DHT22;47065;52.898;6.992;2023-09-19T05:24:52;13.80;99.90
61201;DHT22;47065;52.898;6.992;2023-09-19T05:27:19;13.90;99.90
61201;DHT22;47065;52.898;6.992;2023-09-19T05:29:46;13.90;99.90
61201;DHT22;47065;52.898;6.992;2023-09-19T05:32:12;13.90;99.90
61201;DHT22;47065;52.898;6.992;2023-09-19T05:34:38;13.90;99.90
61201;DHT22;47065;52.898;6.992;2023-09-19T05:37:04;13.90;99.90
61201;DHT22;47065;52.898;6.992;2023-09-19T05:39:33;13.90;99.90
61201;DHT22;47065;52.898;6.992;2023-09-19T05:41:59;13.90;99.90
61201;DHT22;47065;52.898;6.992;2023-09-19T05:44:28;13.90;99.90
61201;DHT22;47065;52.898;6.992;2023-09-19T05:46:54;13.90;99.90
61201;DHT22;47065;52.898;6.992;2023-09-19T05:49:22;13.90;99.90
61201;DHT22;47065;52.898;6.992;2023-09-19T05:51:49;13.90;99.90
61201;DHT22;47065;52.898;6.992;2023-09-19T05:54:16;14.00;99.90
61201;DHT22;47065;52.898;6.992;2023-09-19T05:56:43;13.90;99.90
61201;DHT22;47065;52.898;6.992;2023-09-19T05:59:12;13.90;99.90
61201;DHT22;47065;52.898;6.992;2023-09-19T06:01:39;13.90;99.90
61201;DHT22;47065;52.898;6.992;2023-09-19T06:04:05;13.90;99.90
61201;DHT22;47065;52.898;6.992;2023-09-19T06:06:30;13.80;99.90
61201;DHT22;47065;52.898;6.992;2023-09-19T06:08:56;13.90;99.90
61201;DHT22;47065;52.898;6.992;2023-09-19T06:11:23;13.90;99.90
61201;DHT22;47065;52.898;6.992;2023-09-19T06:13:51;13.90;99.90
61201;DHT22;47065;52.898;6.992;2023-09-19T06:16:18;13.80;99.90
61201;DHT22;47065;52.898;6.992;2023-09-19T06:18:45;13.80;99.90
61201;DHT22;47065;52.898;6.992;2023-09-19T06:21:10;13.80;99.90
61201;DHT22;47065;52.898;6.992;2023-09-19T06:23:36;13.80;99.90
61201;DHT22;47065;52.898;6.992;2023-09-19T06:26:02;13.80;99.90
61201;DHT22;47065;52.898;6.992;2023-09-19T06:28:32;13.70;99.90
61201;DHT22;47065;52.898;6.992;2023-09-19T06:30:59;13.70;99.90
61201;DHT22;47065;52.898;6.992;2023-09-19T06:33:24;13.70;99.90
61201;DHT22;47065;52.898;6.992;2023-09-19T06:35:50;13.80;99.90
61201;DHT22;47065;52.898;6.992;2023-09-19T06:38:18;13.80;99.90
61201;DHT22;47065;52.898;6.992;2023-09-19T06:40:44;13.90;99.90
61201;DHT22;47065;52.898;6.992;2023-09-19T06:43:10;13.90;99.90
61201;DHT22;47065;52.898;6.992;2023-09-19T06:45:36;14.00;99.90
61201;DHT22;47065;52.898;6.992;2023-09-19T06:48:02;14.00;99.90
61201;DHT22;47065;52.898;6.992;2023-09-19T06:50:28;14.10;99.90
61201;DHT22;47065;52.898;6.992;2023-09-19T06:52:56;14.10;99.90
61201;DHT22;47065;52.898;6.992;2023-09-19T06:55:24;14.10;99.90
61201;DHT22;47065;52.898;6.992;2023-09-19T06:57:53;14.20;99.90
61201;DHT22;47065;52.898;6.992;2023-09-19T07:00:22;14.20;99.90
61201;DHT22;47065;52.898;6.992;2023-09-19T07:05:27;14.20;99.90
61201;DHT22;47065;52.898;6.992;2023-09-19T07:07:53;14.20;99.90
61201;DHT22;47065;52.898;6.992;2023-09-19T07:10:20;14.10;99.90
61201;DHT22;47065;52.898;6.992;2023-09-19T07:13:00;14.20;99.90
61201;DHT22;47065;52.898;6.992;2023-09-19T07:15:27;14.20;99.90
61201;DHT22;47065;52.898;6.992;2023-09-19T07:17:54;14.20;99.90
61201;DHT22;47065;52.898;6.992;2023-09-19T07:20:22;14.20;99.90
61201;DHT22;47065;52.898;6.992;2023-09-19T07:22:51;14.20;99.90
61201;DHT22;47065;52.898;6.992;2023-09-19T07:25:17;14.20;99.90
61201;DHT22;47065;52.898;6.992;2023-09-19T07:27:43;14.30;99.90
61201;DHT22;47065;52.898;6.992;2023-09-19T07:30:10;14.30;99.90
61201;DHT22;47065;52.898;6.992;2023-09-19T07:32:37;14.40;99.90
61201;DHT22;47065;52.898;6.992;2023-09-19T07:35:04;14.40;99.90
61201;DHT22;47065;52.898;6.992;2023-09-19T07:37:33;14.50;99.90
61201;DHT22;47065;52.898;6.992;2023-09-19T07:40:00;14.60;99.90
61201;DHT22;47065;52.898;6.992;2023-09-19T07:42:33;14.70;99.90
61201;DHT22;47065;52.898;6.992;2023-09-19T07:45:01;14.80;99.90
61201;DHT22;47065;52.898;6.992;2023-09-19T07:47:27;14.90;99.90
61201;DHT22;47065;52.898;6.992;2023-09-19T07:49:53;15.00;99.90
61201;DHT22;47065;52.898;6.992;2023-09-19T07:52:20;15.10;99.90
61201;DHT22;47065;52.898;6.992;2023-09-19T07:54:46;15.20;99.90
61201;DHT22;47065;52.898;6.992;2023-09-19T07:57:13;15.20;99.90
61201;DHT22;47065;52.898;6.992;2023-09-19T07:59:40;15.30;99.90
61201;DHT22;47065;52.898;6.992;2023-09-19T08:02:08;15.30;99.90
61201;DHT22;47065;52.898;6.992;2023-09-19T08:04:35;15.30;99.90
61201;DHT22;47065;52.898;6.992;2023-09-19T08:07:01;15.40;99.90
61201;DHT22;47065;52.898;6.992;2023-09-19T08:09:29;15.40;99.90
61201;DHT22;47065;52.898;6.992;2023-09-19T08:11:58;15.30;99.90
61201;DHT22;47065;52.898;6.992;2023-09-19T08:14:24;15.40;99.90
61201;DHT22;47065;52.898;6.992;2023-09-19T08:16:51;15.40;99.90
61201;DHT22;47065;52.898;6.992;2023-09-19T08:19:17;15.40;99.90
61201;DHT22;47065;52.898;6.992;2023-09-19T08:21:42;15.50;99.90
61201;DHT22;47065;52.898;6.992;2023-09-19T08:24:12;15.50;99.90
61201;DHT22;47065;52.898;6.992;2023-09-19T08:26:39;15.70;99.90
61201;DHT22;47065;52.898;6.992;2023-09-19T08:29:05;15.70;99.90
61201;DHT22;47065;52.898;6.992;2023-09-19T08:31:33;16.00;99.90
61201;DHT22;47065;52.898;6.992;2023-09-19T08:33:59;16.50;99.90
61201;DHT22;47065;52.898;6.992;2023-09-19T08:36:25;17.10;99.90
61201;DHT22;47065;52.898;6.992;2023-09-19T08:38:51;17.60;99.90
61201;DHT22;47065;52.898;6.992;2023-09-19T08:41:17;17.60;99.90
61201;DHT22;47065;52.898;6.992;2023-09-19T08:43:43;17.60;99.90
61201;DHT22;47065;52.898;6.992;2023-09-19T08:46:14;17.60;99.90
61201;DHT22;47065;52.898;6.992;2023-09-19T08:51:33;17.80;99.90
61201;DHT22;47065;52.898;6.992;2023-09-19T08:54:09;17.90;99.90
61201;DHT22;47065;52.898;6.992;2023-09-19T08:56:39;17.80;99.90
61201;DHT22;47065;52.898;6.992;2023-09-19T08:59:07;17.70;99.90
61201;DHT22;47065;52.898;6.992;2023-09-19T09:01:33;17.80;99.90
61201;DHT22;47065;52.898;6.992;2023-09-19T09:04:01;17.70;99.90
61201;DHT22;47065;52.898;6.992;2023-09-19T09:06:28;17.50;99.90
61201;DHT22;47065;52.898;6.992;2023-09-19T09:08:54;17.40;99.90
61201;DHT22;47065;52.898;6.992;2023-09-19T09:11:20;17.20;99.90
61201;DHT22;47065;52.898;6.992;2023-09-19T09:13:47;17.10;99.90
61201;DHT22;47065;52.898;6.992;2023-09-19T09:16:14;17.00;99.90
61201;DHT22;47065;52.898;6.992;2023-09-19T09:18:43;16.90;99.90
61201;DHT22;47065;52.898;6.992;2023-09-19T09:21:10;16.90;99.90
61201;DHT22;47065;52.898;6.992;2023-09-19T09:23:35;17.00;99.90
61201;DHT22;47065;52.898;6.992;2023-09-19T09:26:01;17.00;99.90
61201;DHT22;47065;52.898;6.992;2023-09-19T09:28:33;17.10;99.90
61201;DHT22;47065;52.898;6.992;2023-09-19T09:30:59;17.30;99.90
61201;DHT22;47065;52.898;6.992;2023-09-19T09:33:28;17.60;99.90
61201;DHT22;47065;52.898;6.992;2023-09-19T09:36:01;17.80;99.90
61201;DHT22;47065;52.898;6.992;2023-09-19T09:38:29;18.10;99.90
61201;DHT22;47065;52.898;6.992;2023-09-19T09:40:59;18.30;99.90
61201;DHT22;47065;52.898;6.992;2023-09-19T09:43:26;18.40;99.90
61201;DHT22;47065;52.898;6.992;2023-09-19T09:46:08;18.60;99.90
61201;DHT22;47065;52.898;6.992;2023-09-19T09:51:48;18.50;99.90
61201;DHT22;47065;52.898;6.992;2023-09-19T09:54:23;18.50;99.90
61201;DHT22;47065;52.898;6.992;2023-09-19T09:56:53;18.50;99.90
61201;DHT22;47065;52.898;6.992;2023-09-19T10:02:12;18.60;99.90
61201;DHT22;47065;52.898;6.992;2023-09-19T10:04:39;18.60;99.90
61201;DHT22;47065;52.898;6.992;2023-09-19T10:07:43;18.60;99.90
61201;DHT22;47065;52.898;6.992;2023-09-19T10:10:32;18.70;99.90
61201;DHT22;47065;52.898;6.992;2023-09-19T10:13:12;18.80;99.90
61201;DHT22;47065;52.898;6.992;2023-09-19T10:15:39;18.90;99.90
61201;DHT22;47065;52.898;6.992;2023-09-19T10:18:14;19.10;99.90
61201;DHT22;47065;52.898;6.992;2023-09-19T10:20:45;19.20;99.90
61201;DHT22;47065;52.898;6.992;2023-09-19T10:23:12;19.20;99.90
61201;DHT22;47065;52.898;6.992;2023-09-19T10:25:43;19.20;99.90
61201;DHT22;47065;52.898;6.992;2023-09-19T10:28:11;19.10;99.90
61201;DHT22;47065;52.898;6.992;2023-09-19T10:30:45;19.10;99.90
61201;DHT22;47065;52.898;6.992;2023-09-19T10:33:15;19.10;99.90
61201;DHT22;47065;52.898;6.992;2023-09-19T10:35:45;19.00;99.90
61201;DHT22;47065;52.898;6.992;2023-09-19T10:38:14;19.10;99.90
61201;DHT22;47065;52.898;6.992;2023-09-19T10:40:40;19.10;99.90
61201;DHT22;47065;52.898;6.992;2023-09-19T10:43:17;19.10;99.90
61201;DHT22;47065;52.898;6.992;2023-09-19T10:45:48;19.10;99.90
61201;DHT22;47065;52.898;6.992;2023-09-19T10:48:18;19.20;99.90
61201;DHT22;47065;52.898;6.992;2023-09-19T10:50:48;19.20;99.90
61201;DHT22;47065;52.898;6.992;2023-09-19T10:53:16;19.10;99.90
61201;DHT22;47065;52.898;6.992;2023-09-19T10:55:52;19.10;99.90
61201;DHT22;47065;52.898;6.992;2023-09-19T10:58:32;19.00;99.90
61201;DHT22;47065;52.898;6.992;2023-09-19T11:01:00;18.90;99.90
61201;DHT22;47065;52.898;6.992;2023-09-19T11:03:31;19.00;99.90
61201;DHT22;47065;52.898;6.992;2023-09-19T11:06:06;19.00;99.90
61201;DHT22;47065;52.898;6.992;2023-09-19T11:09:03;19.20;99.90
61201;DHT22;47065;52.898;6.992;2023-09-19T11:11:43;19.30;99.90
61201;DHT22;47065;52.898;6.992;2023-09-19T11:25:43;19.30;99.90
61201;DHT22;47065;52.898;6.992;2023-09-19T11:30:40;19.30;99.90
61201;DHT22;47065;52.898;6.992;2023-09-19T11:36:08;19.30;99.90
61201;DHT22;47065;52.898;6.992;2023-09-19T11:43:54;19.50;99.90
61201;DHT22;47065;52.898;6.992;2023-09-19T11:46:26;19.60;99.90
61201;DHT22;47065;52.898;6.992;2023-09-19T11:48:54;19.70;99.90
61201;DHT22;47065;52.898;6.992;2023-09-19T11:51:22;19.80;99.90
61201;DHT22;47065;52.898;6.992;2023-09-19T11:53:56;19.90;99.90
61201;DHT22;47065;52.898;6.992;2023-09-19T11:56:27;19.90;99.90
61201;DHT22;47065;52.898;6.992;2023-09-19T11:58:55;19.80;99.90
61201;DHT22;47065;52.898;6.992;2023-09-19T12:01:32;19.80;99.90
61201;DHT22;47065;52.898;6.992;2023-09-19T12:04:00;19.90;99.90
61201;DHT22;47065;52.898;6.992;2023-09-19T12:06:28;19.90;99.70
61201;DHT22;47065;52.898;6.992;2023-09-19T12:08:55;19.80;99.90
61201;DHT22;47065;52.898;6.992;2023-09-19T12:11:23;19.70;99.90
61201;DHT22;47065;52.898;6.992;2023-09-19T12:13:49;19.60;99.90
61201;DHT22;47065;52.898;6.992;2023-09-19T12:16:19;19.50;99.90
61201;DHT22;47065;52.898;6.992;2023-09-19T12:18:48;19.40;99.90
61201;DHT22;47065;52.898;6.992;2023-09-19T12:21:31;19.40;99.90
61201;DHT22;47065;52.898;6.992;2023-09-19T12:24:11;19.30;99.90
61201;DHT22;47065;52.898;6.992;2023-09-19T12:26:43;19.20;99.90
61201;DHT22;47065;52.898;6.992;2023-09-19T12:29:19;19.10;99.90
61201;DHT22;47065;52.898;6.992;2023-09-19T12:31:55;19.10;99.90
61201;DHT22;47065;52.898;6.992;2023-09-19T12:34:27;19.10;99.90
61201;DHT22;47065;52.898;6.992;2023-09-19T12:37:12;19.00;99.90
61201;DHT22;47065;52.898;6.992;2023-09-19T12:39:42;19.00;99.90
61201;DHT22;47065;52.898;6.992;2023-09-19T12:42:10;19.00;99.90
61201;DHT22;47065;52.898;6.992;2023-09-19T12:44:41;19.10;99.90
61201;DHT22;47065;52.898;6.992;2023-09-19T12:47:13;19.10;99.90
61201;DHT22;47065;52.898;6.992;2023-09-19T12:52:52;19.10;99.90
61201;DHT22;47065;52.898;6.992;2023-09-19T12:55:29;19.00;99.90
61201;DHT22;47065;52.898;6.992;2023-09-19T12:58:08;19.00;99.90
61201;DHT22;47065;52.898;6.992;2023-09-19T13:00:41;19.00;99.90
61201;DHT22;47065;52.898;6.992;2023-09-19T13:05:58;18.90;99.90
61201;DHT22;47065;52.898;6.992;2023-09-19T13:08:30;18.90;99.90
61201;DHT22;47065;52.898;6.992;2023-09-19T13:11:14;18.90;99.90
61201;DHT22;47065;52.898;6.992;2023-09-19T13:13:45;18.90;99.90
61201;DHT22;47065;52.898;6.992;2023-09-19T13:16:11;18.90;99.90
61201;DHT22;47065;52.898;6.992;2023-09-19T13:18:44;19.00;99.90
61201;DHT22;47065;52.898;6.992;2023-09-19T13:21:12;19.00;99.90
61201;DHT22;47065;52.898;6.992;2023-09-19T13:23:50;19.00;99.90
61201;DHT22;47065;52.898;6.992;2023-09-19T13:26:17;18.90;99.90
61201;DHT22;47065;52.898;6.992;2023-09-19T13:28:42;18.90;99.90
61201;DHT22;47065;52.898;6.992;2023-09-19T13:31:09;18.90;99.90
61201;DHT22;47065;52.898;6.992;2023-09-19T13:33:43;18.90;99.90
61201;DHT22;47065;52.898;6.992;2023-09-19T13:36:09;18.90;99.90
61201;DHT22;47065;52.898;6.992;2023-09-19T13:38:35;18.80;99.90
61201;DHT22;47065;52.898;6.992;2023-09-19T13:41:00;18.80;99.90
61201;DHT22;47065;52.898;6.992;2023-09-19T13:43:27;18.80;99.90
61201;DHT22;47065;52.898;6.992;2023-09-19T13:45:54;18.70;99.90
61201;DHT22;47065;52.898;6.992;2023-09-19T13:48:20;18.70;99.90
61201;DHT22;47065;52.898;6.992;2023-09-19T13:50:48;18.70;99.90
61201;DHT22;47065;52.898;6.992;2023-09-19T13:53:14;18.70;99.90
61201;DHT22;47065;52.898;6.992;2023-09-19T13:55:40;18.70;99.90
61201;DHT22;47065;52.898;6.992;2023-09-19T13:58:06;18.70;99.90
61201;DHT22;47065;52.898;6.992;2023-09-19T14:00:33;18.70;99.90
61201;DHT22;47065;52.898;6.992;2023-09-19T14:03:01;18.70;99.90
61201;DHT22;47065;52.898;6.992;2023-09-19T14:05:27;18.60;99.90
61201;DHT22;47065;52.898;6.992;2023-09-19T14:07:53;18.70;99.90
61201;DHT22;47065;52.898;6.992;2023-09-19T14:10:21;18.70;99.90
61201;DHT22;47065;52.898;6.992;2023-09-19T14:12:47;18.70;99.90
61201;DHT22;47065;52.898;6.992;2023-09-19T14:15:13;18.70;99.90
61201;DHT22;47065;52.898;6.992;2023-09-19T14:17:40;18.80;99.90
61201;DHT22;47065;52.898;6.992;2023-09-19T14:20:11;18.80;99.90
61201;DHT22;47065;52.898;6.992;2023-09-19T14:22:37;18.80;99.90
61201;DHT22;47065;52.898;6.992;2023-09-19T14:25:05;18.90;99.90
61201;DHT22;47065;52.898;6.992;2023-09-19T14:27:31;19.00;99.90
61201;DHT22;47065;52.898;6.992;2023-09-19T14:29:57;19.00;99.90
61201;DHT22;47065;52.898;6.992;2023-09-19T14:32:23;19.10;99.90
61201;DHT22;47065;52.898;6.992;2023-09-19T14:34:49;19.10;99.90
61201;DHT22;47065;52.898;6.992;2023-09-19T14:37:14;19.10;99.90
61201;DHT22;47065;52.898;6.992;2023-09-19T14:39:42;19.20;99.90
61201;DHT22;47065;52.898;6.992;2023-09-19T14:42:11;19.20;99.90
61201;DHT22;47065;52.898;6.992;2023-09-19T14:44:36;19.20;99.90
61201;DHT22;47065;52.898;6.992;2023-09-19T14:47:05;19.20;99.90
61201;DHT22;47065;52.898;6.992;2023-09-19T14:49:36;19.20;99.90
61201;DHT22;47065;52.898;6.992;2023-09-19T14:52:07;19.20;99.90
61201;DHT22;47065;52.898;6.992;2023-09-19T14:54:34;19.20;99.90
61201;DHT22;47065;52.898;6.992;2023-09-19T14:57:00;19.20;99.90
61201;DHT22;47065;52.898;6.992;2023-09-19T14:59:34;19.20;99.90
61201;DHT22;47065;52.898;6.992;2023-09-19T15:02:06;19.10;99.90
61201;DHT22;47065;52.898;6.992;2023-09-19T15:04:33;19.10;99.90
61201;DHT22;47065;52.898;6.992;2023-09-19T15:07:02;19.10;99.90
61201;DHT22;47065;52.898;6.992;2023-09-19T15:09:28;19.10;99.90
61201;DHT22;47065;52.898;6.992;2023-09-19T15:11:55;19.10;99.90
61201;DHT22;47065;52.898;6.992;2023-09-19T15:14:21;19.00;99.90
61201;DHT22;47065;52.898;6.992;2023-09-19T15:16:48;19.00;99.90
61201;DHT22;47065;52.898;6.992;2023-09-19T15:19:14;19.00;99.90
61201;DHT22;47065;52.898;6.992;2023-09-19T15:21:40;18.90;99.90
61201;DHT22;47065;52.898;6.992;2023-09-19T15:24:07;18.90;99.90
61201;DHT22;47065;52.898;6.992;2023-09-19T15:26:36;18.90;99.90
61201;DHT22;47065;52.898;6.992;2023-09-19T15:29:08;18.90;99.90
61201;DHT22;47065;52.898;6.992;2023-09-19T15:31:35;18.90;99.90
61201;DHT22;47065;52.898;6.992;2023-09-19T15:34:04;18.90;99.90
61201;DHT22;47065;52.898;6.992;2023-09-19T15:36:30;18.90;99.90
61201;DHT22;47065;52.898;6.992;2023-09-19T15:38:58;18.90;99.90
61201;DHT22;47065;52.898;6.992;2023-09-19T15:41:25;18.90;99.90
61201;DHT22;47065;52.898;6.992;2023-09-19T15:43:52;18.90;99.90
61201;DHT22;47065;52.898;6.992;2023-09-19T15:46:19;18.90;99.90
61201;DHT22;47065;52.898;6.992;2023-09-19T15:48:45;18.90;99.90
61201;DHT22;47065;52.898;6.992;2023-09-19T15:51:12;18.80;99.90
61201;DHT22;47065;52.898;6.992;2023-09-19T15:53:44;18.80;99.90
61201;DHT22;47065;52.898;6.992;2023-09-19T15:56:14;18.80;99.90
61201;DHT22;47065;52.898;6.992;2023-09-19T15:58:40;18.80;99.90
61201;DHT22;47065;52.898;6.992;2023-09-19T16:01:08;18.80;99.90
61201;DHT22;47065;52.898;6.992;2023-09-19T16:03:44;18.70;99.90
61201;DHT22;47065;52.898;6.992;2023-09-19T16:06:12;18.70;99.90
61201;DHT22;47065;52.898;6.992;2023-09-19T16:08:45;18.70;99.90
61201;DHT22;47065;52.898;6.992;2023-09-19T16:11:12;18.70;99.90
61201;DHT22;47065;52.898;6.992;2023-09-19T16:13:39;18.70;99.90
61201;DHT22;47065;52.898;6.992;2023-09-19T16:16:07;18.70;99.90
61201;DHT22;47065;52.898;6.992;2023-09-19T16:18:34;18.70;99.90
61201;DHT22;47065;52.898;6.992;2023-09-19T16:21:03;18.60;99.90
61201;DHT22;47065;52.898;6.992;2023-09-19T16:23:30;18.60;99.90
61201;DHT22;47065;52.898;6.992;2023-09-19T16:26:08;18.60;99.90
61201;DHT22;47065;52.898;6.992;2023-09-19T16:28:37;18.60;99.90
61201;DHT22;47065;52.898;6.992;2023-09-19T16:31:04;18.60;99.90
61201;DHT22;47065;52.898;6.992;2023-09-19T16:33:35;18.60;99.90
61201;DHT22;47065;52.898;6.992;2023-09-19T16:36:18;18.60;99.90
61201;DHT22;47065;52.898;6.992;2023-09-19T16:38:45;18.60;99.90